Time;durP1;ratioP1;P1;durP2;ratioP2;P2;SDS_P1;SDS_P2;PMS_P1;PMS_P2;Temp;Humidity;BMP_temperature;BMP_pressure;BME280_temperature;BME280_humidity;BME280_pressure;Samples;Min_cycle;Max_cycle;Signal;HPM_P1;HPM_P2
2022/09/27 00:01:59;;;;;;;1999.90;999.90;;;10.00;99.90;;;;;;5038595;28;20148;-68
2022/09/27 00:04:26;;;;;;;1999.90;999.90;;;10.00;99.90;;;;;;5024268;28;20046;-68
2022/09/27 00:06:52;;;;;;;1999.90;999.90;;;10.00;99.90;;;;;;5018243;28;20042;-68
2022/09/27 00:09:18;;;;;;;1999.90;999.90;;;10.00;99.90;;;;;;5015651;28;20037;-68
2022/09/27 00:11:46;;;;;;;1999.90;999.90;;;10.00;99.90;;;;;;5018022;28;20397;-68
2022/09/27 00:14:13;;;;;;;1999.90;999.90;;;10.00;99.90;;;;;;5028368;28;20049;-68
2022/09/27 00:16:40;;;;;;;1999.90;999.90;;;10.00;99.90;;;;;;5027182;28;20041;-68
2022/09/27 00:19:15;;;;;;;1999.90;999.90;;;9.90;99.90;;;;;;4990285;28;20053;-68
2022/09/27 00:21:42;;;;;;;1999.90;999.90;;;9.90;99.90;;;;;;5019407;28;20075;-67
2022/09/27 00:24:12;;;;;;;1999.90;999.90;;;9.90;99.90;;;;;;5024715;28;20383;-68
2022/09/27 00:26:37;;;;;;;1999.90;999.90;;;9.90;99.90;;;;;;5014961;28;20489;-68
2022/09/27 00:29:03;;;;;;;1999.90;999.90;;;9.90;99.90;;;;;;5019870;28;20077;-68
2022/09/27 00:31:30;;;;;;;1999.90;999.90;;;9.90;99.90;;;;;;4995057;28;20084;-68
2022/09/27 00:34:01;;;;;;;1999.90;999.90;;;9.80;99.90;;;;;;5013203;28;20167;-68
2022/09/27 00:36:28;;;;;;;1999.90;999.90;;;9.80;99.90;;;;;;5002788;28;20056;-68
2022/09/27 00:38:54;;;;;;;1999.90;999.90;;;9.70;99.90;;;;;;5019213;28;20498;-68
2022/09/27 00:41:29;;;;;;;1999.90;999.90;;;9.70;99.90;;;;;;5026093;28;20046;-68
2022/09/27 00:43:58;;;;;;;1999.90;999.90;;;9.70;99.90;;;;;;5013261;28;20100;-68
2022/09/27 00:46:41;;;;;;;1999.90;999.90;;;9.60;99.90;;;;;;5019105;28;20410;-68
2022/09/27 00:49:28;;;;;;;1999.90;999.90;;;9.70;99.90;;;;;;5019903;28;20208;-68
2022/09/27 00:52:04;;;;;;;1999.90;999.90;;;9.70;99.90;;;;;;5023618;28;20076;-68
2022/09/27 00:54:32;;;;;;;1999.90;999.90;;;9.70;99.90;;;;;;5020502;28;20049;-68
2022/09/27 00:56:58;;;;;;;1999.90;999.90;;;9.70;99.90;;;;;;5004696;28;20042;-68
2022/09/27 00:59:32;;;;;;;1999.90;999.90;;;9.70;99.90;;;;;;5026868;28;20049;-68
2022/09/27 01:01:58;;;;;;;1999.90;999.90;;;9.70;99.90;;;;;;5008863;28;20065;-69
2022/09/27 01:04:27;;;;;;;1999.90;999.90;;;9.60;99.90;;;;;;5027006;28;20416;-68
2022/09/27 01:06:53;;;;;;;1999.90;999.90;;;9.60;99.90;;;;;;5016609;28;20151;-68
2022/09/27 01:09:20;;;;;;;1999.90;999.90;;;9.60;99.90;;;;;;5022878;28;20064;-68
2022/09/27 01:12:13;;;;;;;1999.90;999.90;;;9.60;99.90;;;;;;5015381;28;20068;-68
2022/09/27 01:15:05;;;;;;;1999.90;999.90;;;9.60;99.90;;;;;;5031540;28;21040;-68
2022/09/27 01:17:52;;;;;;;1999.90;999.90;;;9.60;99.90;;;;;;5027154;28;20092;-68
2022/09/27 01:20:54;;;;;;;1999.90;999.90;;;9.60;99.90;;;;;;5020091;28;20048;-67
2022/09/27 01:23:47;;;;;;;1999.90;999.90;;;9.70;99.90;;;;;;5026731;28;20374;-67
2022/09/27 01:26:37;;;;;;;1999.90;999.90;;;9.70;99.90;;;;;;5037368;28;20045;-67
2022/09/27 01:29:10;;;;;;;1999.90;999.90;;;9.80;99.90;;;;;;5024498;28;20038;-67
2022/09/27 01:31:49;;;;;;;1999.90;999.90;;;9.80;99.90;;;;;;5029479;28;20145;-67
2022/09/27 01:34:39;;;;;;;1999.90;999.90;;;9.80;99.90;;;;;;5017580;28;20087;-67
2022/09/27 01:37:11;;;;;;;1999.90;999.90;;;9.80;99.90;;;;;;5019428;28;20124;-67
2022/09/27 01:39:58;;;;;;;1999.90;999.90;;;9.70;99.90;;;;;;5032779;28;20052;-67
2022/09/27 01:42:36;;;;;;;1999.90;999.90;;;9.70;99.90;;;;;;5036753;28;20049;-67
2022/09/27 01:45:11;;;;;;;1999.90;999.90;;;9.70;99.90;;;;;;5032052;28;20052;-67
2022/09/27 01:47:44;;;;;;;1999.90;999.90;;;9.70;99.90;;;;;;5042170;28;20053;-67
2022/09/27 01:50:18;;;;;;;1999.90;999.90;;;9.80;99.90;;;;;;5012683;28;20377;-66
2022/09/27 01:52:52;;;;;;;1999.90;999.90;;;9.80;99.90;;;;;;5019856;28;20127;-66
2022/09/27 01:55:22;;;;;;;1999.90;999.90;;;9.80;99.90;;;;;;5024197;28;20026;-66
2022/09/27 01:57:56;;;;;;;1999.90;999.90;;;9.70;99.90;;;;;;5017503;28;20401;-66
2022/09/27 02:00:22;;;;;;;1999.90;999.90;;;9.70;99.90;;;;;;5027646;28;20080;-67
2022/09/27 02:02:57;;;;;;;1999.90;999.90;;;9.70;99.90;;;;;;5011780;28;20042;-67
2022/09/27 02:05:28;;;;;;;1999.90;999.90;;;9.70;99.90;;;;;;5023847;28;20030;-67
2022/09/27 02:08:05;;;;;;;1999.90;999.90;;;9.70;99.90;;;;;;5008934;28;20050;-67
2022/09/27 02:10:38;;;;;;;1999.90;999.90;;;9.70;99.90;;;;;;5015902;28;20155;-67
2022/09/27 02:13:18;;;;;;;1999.90;999.90;;;9.60;99.90;;;;;;5026821;28;20049;-67
2022/09/27 02:15:58;;;;;;;1999.90;999.90;;;9.70;99.90;;;;;;5024691;28;20041;-67
2022/09/27 02:18:33;;;;;;;1999.90;999.90;;;9.70;99.90;;;;;;5021079;28;20052;-67
2022/09/27 02:21:03;;;;;;;1999.90;999.90;;;9.60;99.90;;;;;;5028632;28;20052;-67
2022/09/27 02:23:28;;;;;;;1999.90;999.90;;;9.60;99.90;;;;;;5015568;28;20492;-67
2022/09/27 02:26:00;;;;;;;1999.90;999.90;;;9.50;99.90;;;;;;5018107;28;20176;-67
2022/09/27 02:28:46;;;;;;;1999.90;999.90;;;9.50;99.90;;;;;;5014729;28;20045;-67
2022/09/27 02:31:12;;;;;;;1999.90;999.90;;;9.50;99.90;;;;;;5025105;28;20464;-67
2022/09/27 02:33:50;;;;;;;1999.90;999.90;;;9.50;99.90;;;;;;5017143;28;20045;-67
2022/09/27 02:36:16;;;;;;;1999.90;999.90;;;9.50;99.90;;;;;;5031947;28;20041;-66
2022/09/27 02:38:43;;;;;;;1999.90;999.90;;;9.60;99.90;;;;;;5023779;28;20480;-66
2022/09/27 02:41:17;;;;;;;1999.90;999.90;;;9.50;99.90;;;;;;5020951;28;20048;-67
2022/09/27 02:43:47;;;;;;;1999.90;999.90;;;9.60;99.90;;;;;;5018515;28;20106;-67
2022/09/27 02:46:25;;;;;;;1999.90;999.90;;;9.60;99.90;;;;;;5036266;28;20470;-67
2022/09/27 02:49:09;;;;;;;1999.90;999.90;;;9.60;99.90;;;;;;5012578;28;20040;-66
2022/09/27 02:52:15;;;;;;;1999.90;999.90;;;9.60;99.90;;;;;;5040380;28;20075;-67
2022/09/27 02:55:05;;;;;;;1999.90;999.90;;;9.60;99.90;;;;;;5024042;28;20037;-67
2022/09/27 02:57:44;;;;;;;1999.90;999.90;;;9.50;99.90;;;;;;5015344;28;20046;-66
2022/09/27 03:00:20;;;;;;;1999.90;999.90;;;9.60;99.90;;;;;;5020557;28;20493;-66
2022/09/27 03:03:19;;;;;;;1999.90;999.90;;;9.50;99.90;;;;;;5017111;28;20049;-66
2022/09/27 03:05:52;;;;;;;1999.90;999.90;;;9.50;99.90;;;;;;5012381;28;20095;-66
2022/09/27 03:08:18;;;;;;;1999.90;999.90;;;9.50;99.90;;;;;;5027176;28;20104;-66
2022/09/27 03:10:44;;;;;;;1999.90;999.90;;;9.50;99.90;;;;;;5018832;28;20046;-66
2022/09/27 03:13:10;;;;;;;1999.90;999.90;;;9.40;99.90;;;;;;5020343;28;20038;-66
2022/09/27 03:15:35;;;;;;;1999.90;999.90;;;9.40;99.90;;;;;;5016135;28;20049;-66
2022/09/27 03:18:01;;;;;;;1999.90;999.90;;;9.30;99.90;;;;;;5001795;28;20091;-66
2022/09/27 03:20:28;;;;;;;1999.90;999.90;;;9.30;99.90;;;;;;5042289;28;20398;-66
2022/09/27 03:22:55;;;;;;;1999.90;999.90;;;9.30;99.90;;;;;;5030469;28;20041;-67
2022/09/27 03:25:21;;;;;;;1999.90;999.90;;;9.20;99.90;;;;;;5020336;28;20050;-66
2022/09/27 03:27:47;;;;;;;1999.90;999.90;;;9.30;99.90;;;;;;5013694;28;20044;-66
2022/09/27 03:30:13;;;;;;;1999.90;999.90;;;9.20;99.90;;;;;;5018848;28;20393;-66
2022/09/27 03:32:43;;;;;;;1999.90;999.90;;;9.20;99.90;;;;;;5016371;28;20062;-67
2022/09/27 03:35:10;;;;;;;1999.90;999.90;;;9.20;99.90;;;;;;5032249;28;20456;-66
2022/09/27 03:37:35;;;;;;;1999.90;999.90;;;9.20;99.90;;;;;;5026886;28;20041;-67
2022/09/27 03:40:01;;;;;;;1999.90;999.90;;;9.20;99.90;;;;;;5030740;28;20029;-66
2022/09/27 03:42:27;;;;;;;1999.90;999.90;;;9.20;99.90;;;;;;5019597;28;20041;-67
2022/09/27 03:44:52;;;;;;;1999.90;999.90;;;9.20;99.90;;;;;;5029129;28;20141;-66
2022/09/27 03:47:18;;;;;;;1999.90;999.90;;;9.20;99.90;;;;;;5006038;28;20097;-67
2022/09/27 03:49:44;;;;;;;1999.90;999.90;;;9.20;99.90;;;;;;5016603;28;20794;-66
2022/09/27 03:52:09;;;;;;;1999.90;999.90;;;9.20;99.90;;;;;;5018724;28;20447;-67
2022/09/27 03:54:35;;;;;;;1999.90;999.90;;;9.20;99.90;;;;;;5015730;28;20049;-67
2022/09/27 03:57:00;;;;;;;1999.90;999.90;;;9.20;99.90;;;;;;5022542;28;20041;-67
2022/09/27 03:59:26;;;;;;;1999.90;999.90;;;9.20;99.90;;;;;;5012258;28;20406;-67
2022/09/27 04:01:51;;;;;;;1999.90;999.90;;;9.20;99.90;;;;;;5024403;28;20384;-66
2022/09/27 04:04:17;;;;;;;1999.90;999.90;;;9.20;99.90;;;;;;5017165;28;20046;-66
2022/09/27 04:06:43;;;;;;;1999.90;999.90;;;9.20;99.90;;;;;;5017905;28;20049;-67
2022/09/27 04:09:08;;;;;;;1999.90;999.90;;;9.30;99.90;;;;;;5029765;28;20153;-66
2022/09/27 04:11:34;;;;;;;1999.90;999.90;;;9.30;99.90;;;;;;5030103;28;20064;-66
2022/09/27 04:14:00;;;;;;;1999.90;999.90;;;9.30;99.90;;;;;;5025349;28;20045;-66
2022/09/27 04:16:26;;;;;;;1999.90;999.90;;;9.30;99.90;;;;;;5015561;28;20046;-67
2022/09/27 04:18:52;;;;;;;1999.90;999.90;;;9.30;99.90;;;;;;5016256;28;20045;-67
2022/09/27 04:21:19;;;;;;;1999.90;999.90;;;9.20;99.90;;;;;;5012482;28;20414;-67
2022/09/27 04:23:45;;;;;;;1999.90;999.90;;;9.20;99.90;;;;;;4999475;28;20041;-67
2022/09/27 04:26:12;;;;;;;1999.90;999.90;;;9.20;99.90;;;;;;5020173;28;20112;-67
2022/09/27 04:28:38;;;;;;;1999.90;999.90;;;9.20;99.90;;;;;;5020545;28;20086;-66
2022/09/27 04:31:04;;;;;;;1999.90;999.90;;;9.20;99.90;;;;;;5023380;28;20540;-67
2022/09/27 04:33:30;;;;;;;1999.90;999.90;;;9.20;99.90;;;;;;5026306;28;20061;-67
2022/09/27 04:38:39;;;;;;;1999.90;999.90;;;9.10;99.90;;;;;;5022333;28;20080;-67
2022/09/27 04:41:06;;;;;;;1999.90;999.90;;;9.10;99.90;;;;;;5019636;28;20802;-67
2022/09/27 04:43:32;;;;;;;1999.90;999.90;;;9.20;99.90;;;;;;5031080;28;20044;-67
2022/09/27 04:45:57;;;;;;;1999.90;999.90;;;9.20;99.90;;;;;;5018122;28;20050;-67
2022/09/27 04:48:23;;;;;;;1999.90;999.90;;;9.20;99.90;;;;;;5024628;28;20531;-67
2022/09/27 04:50:59;;;;;;;1999.90;999.90;;;9.20;99.90;;;;;;5025251;28;20579;-67
2022/09/27 04:53:25;;;;;;;1999.90;999.90;;;9.20;99.90;;;;;;5020766;28;20083;-67
2022/09/27 04:55:53;;;;;;;1999.90;999.90;;;9.20;99.90;;;;;;5043728;28;20060;-67
2022/09/27 04:58:19;;;;;;;1999.90;999.90;;;9.20;99.90;;;;;;5039498;28;20060;-67
2022/09/27 05:00:46;;;;;;;1999.90;999.90;;;9.10;99.90;;;;;;5028249;28;20041;-67
2022/09/27 05:03:12;;;;;;;1999.90;999.90;;;9.20;99.90;;;;;;5022255;28;20708;-67
2022/09/27 05:05:38;;;;;;;1999.90;999.90;;;9.20;99.90;;;;;;5035852;28;20065;-66
2022/09/27 05:08:04;;;;;;;1999.90;999.90;;;9.20;99.90;;;;;;5020076;28;20053;-67
2022/09/27 05:10:29;;;;;;;1999.90;999.90;;;9.20;99.90;;;;;;5030371;28;20044;-67
2022/09/27 05:12:55;;;;;;;1999.90;999.90;;;9.20;99.90;;;;;;5015560;28;20034;-67
2022/09/27 05:15:20;;;;;;;1999.90;999.90;;;9.20;99.90;;;;;;5014400;28;20478;-67
2022/09/27 05:17:46;;;;;;;1999.90;999.90;;;9.20;99.90;;;;;;5024716;28;20034;-66
2022/09/27 05:20:12;;;;;;;1999.90;999.90;;;9.20;99.90;;;;;;5015058;28;20092;-67
2022/09/27 05:22:39;;;;;;;1999.90;999.90;;;9.20;99.90;;;;;;5024139;28;20059;-67
2022/09/27 05:25:05;;;;;;;1999.90;999.90;;;9.20;99.90;;;;;;5020781;28;20061;-67
2022/09/27 05:27:30;;;;;;;1999.90;999.90;;;9.20;99.90;;;;;;5025900;28;20060;-67
2022/09/27 05:29:59;;;;;;;1999.90;999.90;;;9.20;99.90;;;;;;5038741;28;20049;-67
2022/09/27 05:32:24;;;;;;;1999.90;999.90;;;9.20;99.90;;;;;;5026266;28;20065;-67
2022/09/27 05:34:52;;;;;;;1999.90;999.90;;;9.20;99.90;;;;;;5023117;28;20034;-67
2022/09/27 05:37:18;;;;;;;1999.90;999.90;;;9.20;99.90;;;;;;5044011;28;20132;-67
2022/09/27 05:39:44;;;;;;;1999.90;999.90;;;9.20;99.90;;;;;;5029409;28;20474;-66
2022/09/27 05:42:14;;;;;;;1999.90;999.90;;;9.20;99.90;;;;;;5026136;28;20429;-67
2022/09/27 05:44:40;;;;;;;1999.90;999.90;;;9.20;99.90;;;;;;5021988;28;20075;-67
2022/09/27 05:47:06;;;;;;;1999.90;999.90;;;9.20;99.90;;;;;;5031064;28;20076;-67
2022/09/27 05:49:32;;;;;;;1999.90;999.90;;;9.20;99.90;;;;;;5032459;28;20045;-67
2022/09/27 05:51:58;;;;;;;1999.90;999.90;;;9.20;99.90;;;;;;5017193;28;20525;-66
2022/09/27 05:54:25;;;;;;;1999.90;999.90;;;9.20;99.90;;;;;;5014531;28;20041;-67
2022/09/27 05:56:59;;;;;;;1999.90;999.90;;;9.20;99.90;;;;;;5021324;28;20044;-67
2022/09/27 05:59:26;;;;;;;1999.90;999.90;;;9.20;99.90;;;;;;5023487;28;20041;-67
2022/09/27 06:01:51;;;;;;;1999.90;999.90;;;9.20;99.90;;;;;;5022032;28;20578;-66
2022/09/27 06:04:18;;;;;;;1999.90;999.90;;;9.20;99.90;;;;;;5015902;28;20058;-67
2022/09/27 06:06:44;;;;;;;1999.90;999.90;;;9.20;99.90;;;;;;5021242;28;20132;-67
2022/09/27 06:09:10;;;;;;;1999.90;999.90;;;9.20;99.90;;;;;;5012979;28;20123;-66
2022/09/27 06:11:36;;;;;;;1999.90;999.90;;;9.20;99.90;;;;;;5030233;28;20470;-67
2022/09/27 06:14:01;;;;;;;1999.90;999.90;;;9.20;99.90;;;;;;5023636;28;20116;-67
2022/09/27 06:16:27;;;;;;;1999.90;999.90;;;9.20;99.90;;;;;;5012759;28;20073;-67
2022/09/27 06:18:53;;;;;;;1999.90;999.90;;;9.20;99.90;;;;;;5038704;28;20072;-66
2022/09/27 06:21:19;;;;;;;1999.90;999.90;;;9.20;99.90;;;;;;5038188;28;20084;-67
2022/09/27 06:23:44;;;;;;;1999.90;999.90;;;9.20;99.90;;;;;;5023146;28;20049;-66
2022/09/27 06:26:11;;;;;;;1999.90;999.90;;;9.20;99.90;;;;;;5030034;28;20410;-67
2022/09/27 06:28:36;;;;;;;1999.90;999.90;;;9.30;99.90;;;;;;5009355;28;20483;-67
2022/09/27 06:31:04;;;;;;;1999.90;999.90;;;9.30;99.90;;;;;;5019508;28;20116;-67
2022/09/27 06:33:31;;;;;;;1999.90;999.90;;;9.40;99.90;;;;;;5018289;28;20054;-66
2022/09/27 06:36:00;;;;;;;1999.90;999.90;;;9.40;99.90;;;;;;5017181;28;20041;-67
2022/09/27 06:38:26;;;;;;;1999.90;999.90;;;9.40;99.90;;;;;;5024940;28;20520;-67
2022/09/27 06:40:51;;;;;;;1999.90;999.90;;;9.50;99.90;;;;;;5014840;28;20042;-67
2022/09/27 06:43:19;;;;;;;1999.90;999.90;;;9.50;99.90;;;;;;5025782;28;20069;-67
2022/09/27 06:45:45;;;;;;;1999.90;999.90;;;9.60;99.90;;;;;;5026158;28;20494;-67
2022/09/27 06:48:12;;;;;;;1999.90;999.90;;;9.60;99.90;;;;;;5025350;28;20037;-67
2022/09/27 06:50:40;;;;;;;1999.90;999.90;;;9.60;99.90;;;;;;5019340;28;20049;-67
2022/09/27 06:53:09;;;;;;;1999.90;999.90;;;9.60;99.90;;;;;;5023638;28;20052;-67
2022/09/27 06:55:35;;;;;;;1999.90;999.90;;;9.60;99.90;;;;;;5018150;28;20121;-67
2022/09/27 07:00:49;;;;;;;1999.90;999.90;;;9.60;99.90;;;;;;5018608;28;20045;-67
2022/09/27 07:03:15;;;;;;;1999.90;999.90;;;9.70;99.90;;;;;;5027099;28;20034;-67
2022/09/27 07:05:41;;;;;;;1999.90;999.90;;;9.60;99.90;;;;;;5018857;28;20482;-67
2022/09/27 07:08:10;;;;;;;1999.90;999.90;;;9.70;99.90;;;;;;5012631;28;20140;-67
2022/09/27 07:10:37;;;;;;;1999.90;999.90;;;9.70;99.90;;;;;;5024843;28;20044;-66
2022/09/27 07:13:04;;;;;;;1999.90;999.90;;;9.70;99.90;;;;;;5015995;28;20124;-67
2022/09/27 07:15:31;;;;;;;1999.90;999.90;;;9.80;99.90;;;;;;5013116;28;20038;-67
2022/09/27 07:17:58;;;;;;;1999.90;999.90;;;9.90;99.90;;;;;;5006694;28;20049;-66
2022/09/27 07:20:24;;;;;;;1999.90;999.90;;;10.00;99.90;;;;;;5021913;28;20405;-67
2022/09/27 07:22:50;;;;;;;1999.90;999.90;;;10.20;99.90;;;;;;5021210;28;20165;-67
2022/09/27 07:25:16;;;;;;;1999.90;999.90;;;10.30;99.90;;;;;;5017970;28;20057;-67
2022/09/27 07:27:42;;;;;;;1999.90;999.90;;;10.40;99.90;;;;;;4992822;28;20044;-67
2022/09/27 07:30:09;;;;;;;1999.90;999.90;;;10.60;99.90;;;;;;5021792;28;20052;-67
2022/09/27 07:32:35;;;;;;;1999.90;999.90;;;10.70;99.90;;;;;;5027603;28;20045;-67
2022/09/27 07:35:03;;;;;;;1999.90;999.90;;;10.80;99.90;;;;;;5014139;28;20045;-67
2022/09/27 07:37:34;;;;;;;1999.90;999.90;;;10.80;99.90;;;;;;5013690;28;20057;-67
2022/09/27 07:40:01;;;;;;;1999.90;999.90;;;10.90;99.90;;;;;;5035927;28;20041;-66
2022/09/27 07:42:30;;;;;;;1999.90;999.90;;;10.90;99.90;;;;;;5004437;28;20046;-66
2022/09/27 07:44:55;;;;;;;1999.90;999.90;;;11.00;99.90;;;;;;5037329;28;20207;-67
2022/09/27 07:47:23;;;;;;;1999.90;999.90;;;11.00;99.90;;;;;;5018545;28;20148;-67
2022/09/27 07:49:51;;;;;;;1999.90;999.90;;;11.10;99.90;;;;;;5015520;28;20087;-67
2022/09/27 07:52:20;;;;;;;1999.90;999.90;;;11.20;99.90;;;;;;5023706;28;20042;-67
2022/09/27 07:54:46;;;;;;;1999.90;999.90;;;11.30;99.90;;;;;;5024087;28;20045;-67
2022/09/27 07:57:15;;;;;;;1999.90;999.90;;;11.30;99.90;;;;;;5021824;28;20053;-67
2022/09/27 07:59:41;;;;;;;1999.90;999.90;;;11.20;99.90;;;;;;5033248;28;20683;-66
2022/09/27 08:02:15;;;;;;;1999.90;999.90;;;11.20;99.90;;;;;;5033678;28;20041;-67
2022/09/27 08:04:46;;;;;;;1999.90;999.90;;;11.20;99.90;;;;;;5028528;28;20041;-67
2022/09/27 08:07:12;;;;;;;1999.90;999.90;;;11.20;99.90;;;;;;5038185;28;20100;-67
2022/09/27 08:09:38;;;;;;;1999.90;999.90;;;11.30;99.90;;;;;;5008687;28;20091;-67
2022/09/27 08:12:03;;;;;;;1999.90;999.90;;;11.40;99.90;;;;;;5012472;28;20041;-67
2022/09/27 08:14:30;;;;;;;1999.90;999.90;;;11.40;99.90;;;;;;5026403;28;20056;-67
2022/09/27 08:16:55;;;;;;;1999.90;999.90;;;11.50;99.90;;;;;;5020701;28;20060;-67
2022/09/27 08:19:21;;;;;;;1999.90;999.90;;;11.70;99.90;;;;;;5021606;28;20037;-67
2022/09/27 08:21:47;;;;;;;1999.90;999.90;;;11.80;99.90;;;;;;5010209;28;20041;-67
2022/09/27 08:24:13;;;;;;;1999.90;999.90;;;11.90;99.90;;;;;;5027827;28;20037;-67
2022/09/27 08:26:39;;;;;;;1999.90;999.90;;;12.10;99.90;;;;;;5025335;28;20505;-67
2022/09/27 08:29:05;;;;;;;1999.90;999.90;;;12.30;99.90;;;;;;5028300;28;20529;-68
2022/09/27 08:31:31;;;;;;;1999.90;999.90;;;12.80;99.90;;;;;;5011446;28;20054;-67
2022/09/27 08:33:56;;;;;;;1999.90;999.90;;;12.80;99.90;;;;;;5031648;28;20524;-67
2022/09/27 08:36:23;;;;;;;1999.90;999.90;;;12.70;99.90;;;;;;5019702;28;20046;-67
2022/09/27 08:38:49;;;;;;;1999.90;999.90;;;12.50;99.90;;;;;;5023245;28;20048;-67
2022/09/27 08:41:33;;;;;;;1999.90;999.90;;;12.40;99.90;;;;;;5030135;28;20045;-67
2022/09/27 08:44:01;;;;;;;1999.90;999.90;;;12.30;99.90;;;;;;5031492;28;20041;-67
2022/09/27 08:46:58;;;;;;;1999.90;999.90;;;12.20;99.90;;;;;;5032353;28;20071;-67
2022/09/27 08:49:40;;;;;;;1999.90;999.90;;;12.20;99.90;;;;;;5029043;28;20045;-67
2022/09/27 08:52:11;;;;;;;1999.90;999.90;;;12.20;99.90;;;;;;5017694;28;20045;-67
2022/09/27 08:54:37;;;;;;;1999.90;999.90;;;12.30;99.90;;;;;;5036331;28;20395;-67
2022/09/27 08:57:15;;;;;;;1999.90;999.90;;;12.40;99.90;;;;;;5010066;28;20828;-67
2022/09/27 08:59:58;;;;;;;1999.90;999.90;;;12.60;99.90;;;;;;5028757;28;20045;-67
2022/09/27 09:02:25;;;;;;;1999.90;999.90;;;12.80;99.90;;;;;;5027193;28;20045;-68
2022/09/27 09:04:56;;;;;;;1999.90;999.90;;;12.90;99.90;;;;;;5036695;28;20045;-67
2022/09/27 09:07:56;;;;;;;1999.90;999.90;;;12.90;99.90;;;;;;5010970;28;20053;-68
2022/09/27 09:13:44;;;;;;;1999.90;999.90;;;13.20;99.90;;;;;;5026944;28;20469;-67
2022/09/27 09:16:10;;;;;;;1999.90;999.90;;;13.20;99.90;;;;;;5022013;28;20042;-67
2022/09/27 09:18:53;;;;;;;1999.90;999.90;;;13.30;99.90;;;;;;5024312;28;20048;-67
2022/09/27 09:21:47;;;;;;;1999.90;999.90;;;13.50;99.90;;;;;;5033257;28;20045;-67
2022/09/27 09:24:29;;;;;;;1999.90;999.90;;;13.70;99.90;;;;;;5024229;28;20041;-67
2022/09/27 09:27:03;;;;;;;1999.90;999.90;;;13.70;99.90;;;;;;5032697;28;20058;-67
2022/09/27 09:30:00;;;;;;;1999.90;999.90;;;13.70;99.90;;;;;;5012538;28;20401;-67
2022/09/27 09:32:51;;;;;;;1999.90;999.90;;;13.40;99.90;;;;;;5012740;28;20518;-66
2022/09/27 09:35:28;;;;;;;1999.90;999.90;;;12.90;99.90;;;;;;5028046;28;20045;-66
2022/09/27 09:37:57;;;;;;;1999.90;999.90;;;12.20;99.90;;;;;;5014693;28;20124;-67
2022/09/27 09:40:32;;;;;;;1999.90;999.90;;;11.70;99.90;;;;;;5011394;28;20045;-66
2022/09/27 09:43:08;;;;;;;1999.90;999.90;;;11.40;99.90;;;;;;5022698;28;20049;-66
2022/09/27 09:45:40;;;;;;;1999.90;999.90;;;11.10;99.90;;;;;;5011429;28;20038;-67
2022/09/27 09:48:11;;;;;;;1999.90;999.90;;;11.00;99.90;;;;;;5011960;28;20053;-66
2022/09/27 09:50:46;;;;;;;1999.90;999.90;;;10.90;99.90;;;;;;5030776;28;20301;-67
2022/09/27 09:53:19;;;;;;;1999.90;999.90;;;10.90;99.90;;;;;;5011931;28;20521;-66
2022/09/27 09:55:49;;;;;;;;;;;11.00;99.90;;;;;;5029730;28;20469;-67
2022/09/27 09:58:21;;;;;;;1999.90;999.90;;;11.00;99.90;;;;;;5036579;28;19924;-66
2022/09/27 10:00:48;;;;;;;1999.90;999.90;;;11.10;99.90;;;;;;5024890;28;20154;-67
2022/09/27 10:03:13;;;;;;;1999.90;999.90;;;11.20;99.90;;;;;;5029656;28;20041;-67
2022/09/27 10:05:43;;;;;;;1999.90;999.90;;;11.20;99.90;;;;;;5028486;28;20390;-67
2022/09/27 10:08:17;;;;;;;1999.90;999.90;;;11.30;99.90;;;;;;5024805;28;20814;-67
2022/09/27 10:10:43;;;;;;;1999.90;999.90;;;11.50;99.90;;;;;;5025900;28;20055;-67
2022/09/27 10:13:17;;;;;;;1999.90;999.90;;;11.60;99.90;;;;;;5022291;28;20045;-67
2022/09/27 10:16:01;;;;;;;1999.90;999.90;;;11.80;99.90;;;;;;5021709;28;20486;-67
2022/09/27 10:18:27;;;;;;;1999.90;999.90;;;12.00;99.90;;;;;;5013627;28;20086;-67
2022/09/27 10:20:57;;;;;;;1999.90;999.90;;;12.20;99.90;;;;;;5015296;28;20060;-67
2022/09/27 10:23:24;;;;;;;1999.90;999.90;;;12.40;99.90;;;;;;5020288;28;20041;-67
2022/09/27 10:25:54;;;;;;;1999.90;999.90;;;12.60;99.90;;;;;;5035171;28;20045;-67
2022/09/27 10:28:32;;;;;;;1999.90;999.90;;;12.70;99.90;;;;;;5027379;28;20045;-67
2022/09/27 10:31:10;;;;;;;1999.90;999.90;;;12.70;99.90;;;;;;5017430;28;20525;-67
2022/09/27 10:33:55;;;;;;;1999.90;999.90;;;12.50;99.90;;;;;;5022615;28;20083;-66
2022/09/27 10:36:28;;;;;;;1999.90;999.90;;;12.40;99.90;;;;;;5017481;28;20045;-67
2022/09/27 10:38:56;;;;;;;1999.90;999.90;;;12.20;99.90;;;;;;5007348;28;20042;-67
2022/09/27 10:41:26;;;;;;;1999.90;999.90;;;12.00;99.90;;;;;;5017614;28;20076;-66
2022/09/27 10:43:52;;;;;;;1999.90;999.90;;;11.60;99.90;;;;;;5013676;28;20038;-67
2022/09/27 10:46:30;;;;;;;1999.90;999.90;;;11.40;99.90;;;;;;5012713;28;20045;-67
2022/09/27 10:49:18;;;;;;;1999.90;999.90;;;11.30;99.90;;;;;;5008009;28;20072;-66
2022/09/27 10:51:45;;;;;;;1999.90;999.90;;;11.20;99.90;;;;;;5018230;28;20037;-66
2022/09/27 10:54:38;;;;;;;1999.90;999.90;;;11.20;99.90;;;;;;5015637;28;20462;-67
2022/09/27 10:57:15;;;;;;;1999.90;999.90;;;11.10;99.90;;;;;;5021955;28;20096;-67
2022/09/27 10:59:44;;;;;;;1999.90;999.90;;;11.00;99.90;;;;;;5031270;28;20036;-67
2022/09/27 11:02:31;;;;;;;1999.90;999.90;;;10.90;99.90;;;;;;5018502;28;20041;-67
2022/09/27 11:05:14;;;;;;;1999.90;999.90;;;10.80;99.90;;;;;;5013937;28;20037;-67
2022/09/27 11:07:54;;;;;;;1999.90;999.90;;;10.70;99.90;;;;;;5029759;28;20134;-67
2022/09/27 11:10:27;;;;;;;1999.90;999.90;;;10.70;99.90;;;;;;5024046;28;20056;-67
2022/09/27 11:13:22;;;;;;;1999.90;999.90;;;10.70;99.90;;;;;;5020487;28;20046;-67
2022/09/27 11:15:58;;;;;;;1999.90;999.90;;;10.80;99.90;;;;;;4988001;28;20057;-67
2022/09/27 11:18:27;;;;;;;1999.90;999.90;;;11.00;99.90;;;;;;5020400;28;20573;-66
2022/09/27 11:21:05;;;;;;;1999.90;999.90;;;11.20;99.90;;;;;;5015125;28;20052;-67
2022/09/27 11:23:57;;;;;;;1999.90;999.90;;;11.60;99.90;;;;;;5020657;28;20120;-67
2022/09/27 11:26:35;;;;;;;1999.90;999.90;;;12.10;99.90;;;;;;5029892;28;20046;-67
2022/09/27 11:29:34;;;;;;;1999.90;999.90;;;12.50;99.90;;;;;;5020780;28;20100;-67
2022/09/27 11:32:13;;;;;;;1999.90;999.90;;;12.90;99.90;;;;;;5026825;28;20521;-67
2022/09/27 11:34:57;;;;;;;1999.90;999.90;;;13.20;99.90;;;;;;5014055;28;20040;-67
2022/09/27 11:37:36;;;;;;;1999.90;999.90;;;13.40;99.90;;;;;;5008574;28;20096;-67
2022/09/27 11:40:31;;;;;;;1999.90;999.90;;;13.50;99.90;;;;;;5030359;28;20080;-67
2022/09/27 11:43:15;;;;;;;1999.90;999.90;;;13.50;99.90;;;;;;5027132;28;20049;-68
2022/09/27 11:46:09;;;;;;;1999.90;999.90;;;13.50;99.90;;;;;;5031994;28;20095;-67
2022/09/27 11:49:00;;;;;;;1999.90;999.90;;;13.30;99.90;;;;;;5034445;28;20117;-67
2022/09/27 11:52:03;;;;;;;1999.90;999.90;;;13.20;99.90;;;;;;5021374;28;20513;-68
2022/09/27 11:54:28;;;;;;;1999.90;999.90;;;13.10;99.90;;;;;;5024855;28;20041;-67
2022/09/27 11:57:18;;;;;;;1999.90;999.90;;;12.90;99.90;;;;;;5018957;28;20111;-67
2022/09/27 12:00:14;;;;;;;1999.90;999.90;;;12.90;99.90;;;;;;5025787;28;20037;-67
2022/09/27 12:03:13;;;;;;;1999.90;999.90;;;12.80;99.90;;;;;;5023484;28;20045;-67
2022/09/27 12:06:18;;;;;;;1999.90;999.90;;;12.70;99.90;;;;;;5008607;28;20038;-67
2022/09/27 12:09:02;;;;;;;1999.90;999.90;;;12.50;99.90;;;;;;4987701;28;20524;-67
2022/09/27 12:11:45;;;;;;;1999.90;999.90;;;12.30;99.90;;;;;;5023223;28;20449;-67
2022/09/27 12:14:35;;;;;;;1999.90;999.90;;;12.30;99.90;;;;;;5036662;28;20050;-67
2022/09/27 12:17:05;;;;;;;1999.90;999.90;;;12.40;99.90;;;;;;5020246;28;20041;-66
2022/09/27 12:19:40;;;;;;;1999.90;999.90;;;12.70;99.90;;;;;;5025005;28;20069;-67
2022/09/27 12:22:15;;;;;;;1999.90;999.90;;;12.70;99.90;;;;;;5019652;28;20045;-66
2022/09/27 12:24:42;;;;;;;1999.90;999.90;;;12.80;99.90;;;;;;5012281;28;20379;-67
2022/09/27 12:27:40;;;;;;;1999.90;999.90;;;12.70;99.90;;;;;;5019065;28;20045;-67
2022/09/27 12:30:12;;;;;;;1999.90;999.90;;;12.60;99.90;;;;;;5039969;28;20095;-66
2022/09/27 12:32:50;;;;;;;1999.90;999.90;;;12.50;99.90;;;;;;5014108;28;20085;-66
2022/09/27 12:35:30;;;;;;;1999.90;999.90;;;12.40;99.90;;;;;;5017204;28;20458;-67
2022/09/27 12:38:16;;;;;;;1999.90;999.90;;;12.40;99.90;;;;;;5019865;28;20410;-67